Terminal Aerodrome Forecast
Issued by NWS

Home | Current Version | Previous Version | Graphics & Text | Print | Product List | Glossary On
Versions: 1 2 3 4 5 6 7 8 9 10 11 12 13 14
626
FTUS42 KMHX 180541
TAFISO
TAF
KISO 180541Z 1806/1906 02007KT P6SM OVC012
     FM180700 01007KT P6SM OVC008
     FM180900 01008KT P6SM OVC004
     FM181200 01009KT P6SM OVC007
     FM181500 01011G20KT P6SM BKN020
     FM181800 01012G20KT P6SM SCT025
      AMD LTD TO CLD VIS AND WIND=

USA.gov is the U.S. government's official web portal to all federal, state and local government web resources and services.